Time;durP1;ratioP1;P1;durP2;ratioP2;P2;SDS_P1;SDS_P2;PMS_P1;PMS_P2;Temp;Humidity;BMP_temperature;BMP_pressure;BME280_temperature;BME280_humidity;BME280_pressure;Samples;Min_cycle;Max_cycle;Signal;HPM_P1;HPM_P2
2022/04/04 00:00:35;;;;;;;74.07;34.58;;;;;;;23.12;65.06;98058.53;4781855;29;20055;-66
2022/04/04 00:03:17;;;;;;;79.07;32.42;;;;;;;23.08;66.41;98062.38;4781878;29;20054;-66
2022/04/04 00:06:07;;;;;;;56.22;30.42;;;;;;;23.09;65.84;98054.34;4780054;29;20055;-66
2022/04/04 00:08:48;;;;;;;59.75;31.00;;;;;;;23.08;63.92;98059.75;4779423;29;20124;-66
2022/04/04 00:11:37;;;;;;;64.43;30.08;;;;;;;23.06;63.88;98062.53;4780079;29;20831;-66
2022/04/04 00:14:21;;;;;;;66.93;30.63;;;;;;;23.11;63.65;98062.94;4780164;29;20059;-65
2022/04/04 00:17:16;;;;;;;64.90;30.27;;;;;;;23.08;64.31;98065.84;4780593;29;20096;-65
2022/04/04 00:19:52;;;;;;;66.90;30.20;;;;;;;23.08;64.72;98060.59;4782378;29;20527;-66
2022/04/04 00:22:41;;;;;;;82.45;30.75;;;;;;;23.05;63.82;98063.50;4779003;29;20085;-66
2022/04/04 00:25:23;;;;;;;69.05;30.08;;;;;;;23.04;65.84;98058.38;4792008;29;20055;-66
2022/04/04 00:28:20;;;;;;;65.55;29.45;;;;;;;23.07;65.51;98066.81;4780144;30;20063;-66
2022/04/04 00:31:02;;;;;;;61.60;31.00;;;;;;;23.03;66.94;98064.59;4781550;29;20043;-66
2022/04/04 00:33:51;;;;;;;61.10;31.33;;;;;;;22.98;66.83;98059.78;4780285;30;20492;-67
2022/04/04 00:36:33;;;;;;;73.47;34.78;;;;;;;22.90;65.50;98067.53;4780061;29;20059;-65
2022/04/04 00:39:23;;;;;;;79.85;35.35;;;;;;;22.88;65.68;98066.81;4780246;29;20077;-67
2022/04/04 00:42:06;;;;;;;72.85;35.00;;;;;;;22.92;66.55;98065.56;4784063;29;20158;-66
2022/04/04 00:44:54;;;;;;;77.25;36.70;;;;;;;22.88;66.69;98066.81;4793250;29;20814;-67
2022/04/04 00:47:36;;;;;;;75.45;39.65;;;;;;;22.84;66.66;98068.88;4798773;29;20753;-66
2022/04/04 00:50:25;;;;;;;83.35;39.58;;;;;;;22.87;67.00;98073.03;4783259;29;20440;-66
2022/04/04 00:53:10;;;;;;;91.55;39.80;;;;;;;22.98;65.92;98075.53;4781065;29;20059;-66
2022/04/04 00:55:58;;;;;;;85.53;41.72;;;;;;;22.91;65.10;98084.13;4810472;29;20124;-66
2022/04/04 00:58:40;;;;;;;84.13;42.63;;;;;;;22.88;65.35;98074.72;4806503;29;20061;-66
2022/04/04 01:01:28;;;;;;;92.53;43.95;;;;;;;22.79;65.09;98086.03;4780460;29;20086;-67
2022/04/04 01:04:17;;;;;;;95.53;44.65;;;;;;;22.77;66.74;98090.59;4794004;29;20147;-66
2022/04/04 01:07:00;;;;;;;96.88;46.50;;;;;;;22.76;68.79;98091.53;4780823;29;20116;-66
2022/04/04 01:09:50;;;;;;;97.32;46.55;;;;;;;22.80;69.19;98100.81;4780555;29;20055;-66
2022/04/04 01:12:38;;;;;;;94.18;48.55;;;;;;;22.80;69.82;98100.81;4780524;29;20067;-67
2022/04/04 01:15:32;;;;;;;90.97;45.92;;;;;;;22.80;68.48;98104.28;4788214;29;20063;-67
2022/04/04 01:18:21;;;;;;;95.88;47.42;;;;;;;22.83;69.51;98113.66;4796892;29;20078;-66
2022/04/04 01:21:03;;;;;;;95.35;49.08;;;;;;;22.84;67.45;98115.34;4787953;29;20143;-66
2022/04/04 01:23:56;;;;;;;106.75;49.13;;;;;;;22.85;69.20;98109.13;4786547;30;20066;-66
2022/04/04 01:26:54;;;;;;;98.88;50.72;;;;;;;22.90;70.08;98117.44;4786357;29;20062;-66
2022/04/04 01:29:30;;;;;;;111.20;53.85;;;;;;;23.00;70.00;98126.13;4786484;29;20069;-65
2022/04/04 01:32:24;;;;;;;109.30;54.92;;;;;;;22.96;70.07;98122.13;4802239;29;20051;-65
2022/04/04 01:35:00;;;;;;;104.00;53.13;;;;;;;22.94;70.67;98129.31;4797217;29;20059;-66
2022/04/04 01:37:49;;;;;;;102.90;50.17;;;;;;;22.91;66.38;98132.22;4786557;29;20491;-66
2022/04/04 01:40:38;;;;;;;90.30;45.15;;;;;;;22.99;68.99;98134.97;4788515;29;20133;-66
2022/04/04 01:43:21;;;;;;;92.65;39.35;;;;;;;23.03;69.01;98136.38;4797242;29;20722;-66
2022/04/04 01:46:25;;;;;;;78.97;39.15;;;;;;;23.18;70.22;98137.63;4804321;29;20055;-66
2022/04/04 01:49:07;;;;;;;65.40;35.03;;;;;;;23.33;69.22;98142.47;4804503;29;20231;-65
2022/04/04 01:51:56;;;;;;;73.38;35.03;;;;;;;23.41;66.48;98145.22;4804177;29;20483;-66
2022/04/04 01:54:38;;;;;;;63.88;29.83;;;;;;;23.48;67.54;98146.31;4788123;29;20497;-66
2022/04/04 01:57:26;;;;;;;62.53;28.38;;;;;;;23.63;67.03;98161.56;4786086;30;20063;-66
2022/04/04 02:00:09;;;;;;;56.22;26.60;;;;;;;23.72;64.93;98156.44;4801332;29;20051;-66
2022/04/04 02:02:56;;;;;;;70.07;26.42;;;;;;;23.98;67.38;98154.84;4786722;29;20206;-66
2022/04/04 02:05:38;;;;;;;68.95;26.98;;;;;;;24.35;64.77;98153.06;4785641;29;20059;-66
2022/04/04 02:08:27;;;;;;;58.67;26.80;;;;;;;24.98;62.65;98168.19;4785523;29;20132;-66
2022/04/04 02:11:10;;;;;;;64.30;26.85;;;;;;;25.39;59.62;98169.38;4786016;29;20055;-65
2022/04/04 02:14:02;;;;;;;70.10;27.35;;;;;;;25.63;57.74;98171.41;4788176;29;20712;-66
2022/04/04 02:16:44;;;;;;;63.88;25.48;;;;;;;25.88;61.33;98170.59;4803291;29;20124;-66
2022/04/04 02:19:33;;;;;;;52.42;26.80;;;;;;;25.97;62.42;98169.69;4785988;29;20063;-66
2022/04/04 02:22:15;;;;;;;64.53;27.98;;;;;;;26.09;59.85;98172.91;4786207;30;20055;-66
2022/04/04 02:25:04;;;;;;;62.13;27.30;;;;;;;26.31;59.81;98168.91;4786188;30;20183;-66
2022/04/04 02:27:45;;;;;;;71.32;29.02;;;;;;;26.25;58.20;98181.78;4783724;29;20093;-66
2022/04/04 02:30:50;;;;;;;69.13;28.27;;;;;;;26.23;56.03;98178.44;4783517;29;20847;-66
2022/04/04 02:33:38;;;;;;;65.57;32.35;;;;;;;26.39;58.66;98179.53;4782472;29;20104;-66
2022/04/04 02:36:26;;;;;;;75.47;33.83;;;;;;;26.32;55.30;98181.97;4783478;29;20188;-66
2022/04/04 02:39:08;;;;;;;71.07;35.78;;;;;;;26.48;55.31;98189.97;4789887;29;20471;-66
2022/04/04 02:41:57;;;;;;;72.13;36.97;;;;;;;26.68;54.38;98185.25;4800305;29;20119;-66
2022/04/04 02:44:39;;;;;;;84.38;38.60;;;;;;;26.75;54.27;98185.44;4792579;29;20047;-66
2022/04/04 02:47:28;;;;;;;100.35;44.72;;;;;;;26.72;55.25;98186.59;4782970;29;20063;-67
2022/04/04 02:50:12;;;;;;;119.27;53.33;;;;;;;26.86;54.86;98199.22;4776903;29;20059;-66
2022/04/04 02:53:00;;;;;;;110.68;52.65;;;;;;;26.91;54.45;98199.56;4777596;29;20318;-66
2022/04/04 02:58:50;;;;;;;119.18;58.55;;;;;;;27.03;56.01;98192.19;4782632;30;20075;-66
2022/04/04 03:01:32;;;;;;;146.50;68.55;;;;;;;27.07;53.87;98203.25;4782702;29;20052;-66
2022/04/04 03:04:23;;;;;;;130.90;63.60;;;;;;;27.13;54.79;98199.97;4789484;29;20138;-67
2022/04/04 03:07:09;;;;;;;134.05;64.57;;;;;;;27.17;56.23;98206.59;4782615;29;20055;-67
2022/04/04 03:09:58;;;;;;;126.88;64.40;;;;;;;27.17;56.20;98207.41;4786549;29;20058;-68
2022/04/04 03:12:42;;;;;;;147.77;64.80;;;;;;;27.23;55.01;98217.34;4772337;29;20472;-66
2022/04/04 03:15:31;;;;;;;114.78;59.10;;;;;;;27.33;57.36;98210.09;4786830;29;20058;-67
2022/04/04 03:18:13;;;;;;;113.18;59.67;;;;;;;27.47;58.67;98210.44;4787472;29;20058;-67
2022/04/04 03:21:03;;;;;;;114.15;55.67;;;;;;;27.44;54.87;98208.97;4789871;29;20047;-67
2022/04/04 03:23:45;;;;;;;104.28;52.05;;;;;;;27.46;53.50;98217.53;4783186;29;20055;-67
2022/04/04 03:26:35;;;;;;;93.05;43.75;;;;;;;27.49;49.50;98222.50;4783060;29;20047;-67
2022/04/04 03:29:16;;;;;;;89.68;38.67;;;;;;;27.60;47.96;98219.59;4785172;29;20067;-67
2022/04/04 03:32:12;;;;;;;88.70;35.38;;;;;;;27.68;47.37;98226.72;4786130;29;20043;-67
2022/04/04 03:35:02;;;;;;;65.65;32.67;;;;;;;27.78;50.19;98230.00;4784137;29;20055;-66
2022/04/04 03:37:54;;;;;;;77.18;31.77;;;;;;;27.82;48.13;98235.81;4793169;29;20162;-68
2022/04/04 03:40:37;;;;;;;69.45;31.08;;;;;;;27.88;46.78;98235.13;4793524;29;20138;-67
2022/04/04 03:43:25;;;;;;;84.53;32.88;;;;;;;27.95;43.04;98234.31;4788697;29;20055;-67
2022/04/04 03:46:07;;;;;;;57.55;30.33;;;;;;;28.12;48.06;98235.13;4790716;29;20047;-67
2022/04/04 03:48:57;;;;;;;84.18;33.47;;;;;;;28.22;45.35;98235.81;4786432;29;20059;-68
2022/04/04 03:51:39;;;;;;;76.17;31.17;;;;;;;28.35;49.21;98230.78;4789793;29;20059;-67
2022/04/04 03:54:30;;;;;;;68.05;33.15;;;;;;;28.44;47.95;98235.09;4778256;29;20151;-67
2022/04/04 03:57:12;;;;;;;75.28;33.08;;;;;;;28.55;43.94;98241.84;4794444;29;20174;-68
2022/04/04 04:00:00;;;;;;;76.38;34.45;;;;;;;28.65;44.81;98241.66;4791037;29;20464;-66
2022/04/04 04:02:42;;;;;;;77.40;35.83;;;;;;;28.76;45.76;98243.97;4771603;29;20514;-66
2022/04/04 04:05:31;;;;;;;83.35;34.70;;;;;;;28.90;46.88;98240.56;4780260;29;20063;-67
2022/04/04 04:08:13;;;;;;;84.25;35.30;;;;;;;29.08;43.82;98248.28;4790150;29;20059;-64
2022/04/04 04:11:03;;;;;;;72.72;32.90;;;;;;;29.31;46.16;98241.19;4778180;29;20051;-66
2022/04/04 04:13:46;;;;;;;70.03;30.77;;;;;;;29.62;45.27;98238.53;4782681;29;20059;-65
2022/04/04 04:16:34;;;;;;;72.70;29.92;;;;;;;29.95;44.21;98242.59;4781083;29;20055;-66
2022/04/04 04:22:23;;;;;;;56.05;26.15;;;;;;;30.75;45.08;98247.31;4782726;29;20087;-65
2022/04/04 04:25:06;;;;;;;59.85;23.15;;;;;;;31.46;41.75;98251.03;4799709;29;20066;-66
2022/04/04 04:27:55;;;;;;;53.17;23.38;;;;;;;31.88;41.27;98250.25;4788842;29;20762;-66
2022/04/04 04:30:45;;;;;;;40.70;19.27;;;;;;;32.00;39.12;98256.72;4784484;29;20055;-65
2022/04/04 04:33:39;;;;;;;51.30;19.42;;;;;;;32.71;39.97;98252.16;4783407;29;20162;-66
2022/04/04 04:36:14;;;;;;;48.30;17.02;;;;;;;32.49;38.51;98255.84;4791583;29;20046;-65
2022/04/04 04:39:10;;;;;;;40.30;17.67;;;;;;;32.88;39.33;98261.47;4786839;29;20078;-65
2022/04/04 04:41:45;;;;;;;47.90;18.85;;;;;;;33.00;36.33;98259.03;4790315;29;20061;-66
2022/04/04 04:44:40;;;;;;;38.63;16.08;;;;;;;33.08;38.44;98260.72;4786872;29;20138;-66
2022/04/04 04:47:17;;;;;;;42.05;15.50;;;;;;;33.23;37.51;98261.41;4777731;29;20047;-67
2022/04/04 04:50:08;;;;;;;36.97;15.98;;;;;;;33.80;35.50;98266.31;4781139;29;20325;-66
2022/04/04 04:52:54;;;;;;;41.40;16.08;;;;;;;34.17;37.41;98262.19;4797765;29;20138;-66
2022/04/04 04:55:42;;;;;;;36.67;14.15;;;;;;;34.24;38.79;98265.75;4784220;29;20509;-65
2022/04/04 04:58:25;;;;;;;47.65;13.40;;;;;;;34.21;36.77;98263.44;4780287;29;20055;-64
2022/04/04 05:01:14;;;;;;;41.97;14.10;;;;;;;34.39;37.72;98263.69;4780161;29;20549;-65
2022/04/04 05:03:57;;;;;;;;;;;;;;;34.46;36.25;98260.97;4785033;29;20059;-67
2022/04/04 05:06:49;;;;;;;40.17;14.98;;;;;;;34.40;36.78;98257.25;4780313;29;21204;-64
2022/04/04 05:09:31;;;;;;;43.42;13.02;;;;;;;34.88;34.84;98262.34;4781635;29;20055;-63
2022/04/04 05:12:20;;;;;;;49.55;14.60;;;;;;;34.91;35.08;98259.22;4782235;29;20476;-62
2022/04/04 05:15:10;;;;;;;39.90;15.35;;;;;;;34.88;35.51;98262.34;4789301;29;20067;-63
2022/04/04 05:17:53;;;;;;;56.58;16.58;;;;;;;35.22;35.42;98262.00;4782818;29;20063;-64
2022/04/04 05:20:43;;;;;;;35.10;14.93;;;;;;;35.47;36.79;98263.94;4783060;29;20046;-63
2022/04/04 05:23:24;;;;;;;43.10;15.20;;;;;;;35.60;39.17;98259.31;4785704;29;20059;-64
2022/04/04 05:26:13;;;;;;;47.50;15.77;;;;;;;35.29;37.40;98260.13;4787685;29;20047;-64
2022/04/04 05:28:49;;;;;;;36.30;18.30;;;;;;;35.29;33.03;98254.75;4787220;29;20063;-65
2022/04/04 05:31:51;;;;;;;70.40;23.05;;;;;;;35.49;32.77;98257.34;4782570;29;20050;-65
2022/04/04 05:34:26;;;;;;;66.80;24.10;;;;;;;35.55;34.03;98247.63;4787274;29;20065;-65
2022/04/04 05:37:15;;;;;;;72.10;23.58;;;;;;;35.56;35.74;98251.94;4781578;29;20048;-65
2022/04/04 05:39:57;;;;;;;54.42;22.50;;;;;;;36.01;35.06;98245.44;4793049;29;20115;-64
2022/04/04 05:42:53;;;;;;;66.00;21.45;;;;;;;35.60;35.70;98247.81;4788142;29;20043;-64
2022/04/04 05:45:30;;;;;;;57.97;21.40;;;;;;;35.57;35.84;98242.88;4780505;29;20066;-65
2022/04/04 05:48:19;;;;;;;49.17;17.23;;;;;;;35.00;31.93;98249.13;4777004;29;20094;-64
2022/04/04 05:51:02;;;;;;;32.85;17.02;;;;;;;35.64;34.33;98246.31;4780674;29;20059;-63
2022/04/04 05:53:58;;;;;;;48.03;20.23;;;;;;;35.42;32.72;98239.66;4782438;29;20051;-64
2022/04/04 05:56:37;;;;;;;50.55;19.73;;;;;;;35.83;34.44;98244.56;4782120;29;20059;-65
2022/04/04 05:59:33;;;;;;;50.10;20.33;;;;;;;35.58;34.49;98234.63;4787454;29;20116;-64
2022/04/04 06:02:09;;;;;;;52.92;19.77;;;;;;;35.54;34.55;98240.59;4795756;29;20227;-65
2022/04/04 06:05:00;;;;;;;57.97;21.23;;;;;;;35.94;35.84;98233.13;4791108;29;20070;-64
2022/04/04 06:07:44;;;;;;;33.00;16.17;;;;;;;35.72;32.24;98235.38;4791931;29;20139;-64
2022/04/04 06:10:32;;;;;;;45.90;18.05;;;;;;;35.44;32.42;98233.03;4782436;29;20054;-65
2022/04/04 06:13:13;;;;;;;46.50;18.73;;;;;;;35.51;35.87;98238.38;4783260;29;20047;-64
2022/04/04 06:16:02;;;;;;;42.83;17.40;;;;;;;35.83;32.27;98237.34;4783706;29;20059;-64
2022/04/04 06:18:51;;;;;;;40.28;15.52;;;;;;;35.73;34.26;98239.69;4792163;29;20059;-64
2022/04/04 06:21:33;;;;;;;41.97;13.75;;;;;;;35.87;29.88;98235.88;4781031;29;20058;-63
2022/04/04 06:24:23;;;;;;;30.23;12.98;;;;;;;35.95;31.75;98232.91;4782243;29;20423;-64
2022/04/04 06:27:04;;;;;;;39.92;13.20;;;;;;;36.12;34.29;98235.03;4798531;29;20047;-64
2022/04/04 06:29:52;;;;;;;36.15;12.18;;;;;;;35.94;29.30;98233.13;4790746;29;20059;-65
2022/04/04 06:32:34;;;;;;;30.15;11.07;;;;;;;35.91;28.73;98237.09;4784988;29;20054;-64
2022/04/04 06:35:25;;;;;;;39.55;11.65;;;;;;;36.13;31.60;98232.16;4782771;29;20691;-65
2022/04/04 06:38:18;;;;;;;31.42;10.38;;;;;;;35.93;30.71;98226.94;4792179;29;20070;-65
2022/04/04 06:40:59;;;;;;;24.35;10.60;;;;;;;36.11;30.79;98234.22;4795529;29;20462;-65
2022/04/04 06:43:50;;;;;;;32.72;10.30;;;;;;;35.99;30.29;98223.41;4791519;29;20047;-65
2022/04/04 06:46:31;;;;;;;27.35;10.90;;;;;;;35.93;29.08;98220.75;4793378;29;20062;-65
2022/04/04 06:49:20;;;;;;;50.92;10.55;;;;;;;35.89;27.78;98220.38;4786882;29;20108;-65
2022/04/04 06:52:02;;;;;;;26.98;10.38;;;;;;;36.01;33.02;98223.97;4782164;29;20069;-65
2022/04/04 06:54:57;;;;;;;24.63;10.70;;;;;;;36.00;28.30;98221.50;4788102;29;20157;-65
2022/04/04 06:57:45;;;;;;;24.80;9.55;;;;;;;35.81;27.80;98223.34;4785694;29;20055;-65
2022/04/04 07:00:41;;;;;;;24.83;9.80;;;;;;;35.99;28.61;98219.91;4783707;29;20742;-65
2022/04/04 07:03:17;;;;;;;27.50;8.95;;;;;;;36.15;26.62;98221.19;4787733;29;20133;-65
2022/04/04 07:06:07;;;;;;;20.25;8.70;;;;;;;36.09;27.92;98219.38;4781868;29;20046;-64
2022/04/04 07:08:49;;;;;;;23.90;8.82;;;;;;;35.85;28.61;98207.59;4786085;29;20055;-65
2022/04/04 07:11:38;;;;;;;30.02;8.30;;;;;;;35.81;26.86;98211.78;4787274;29;20561;-65
2022/04/04 07:14:20;;;;;;;17.10;8.73;;;;;;;35.75;29.82;98199.25;4787729;29;20051;-65
2022/04/04 07:17:09;;;;;;;24.58;9.27;;;;;;;35.62;28.63;98208.19;4783028;29;20062;-63
2022/04/04 07:19:53;;;;;;;32.97;9.98;;;;;;;35.59;26.11;98206.78;4786874;29;20055;-64
2022/04/04 07:22:43;;;;;;;31.75;8.65;;;;;;;35.62;29.81;98213.53;4787182;29;20061;-64
2022/04/04 07:25:25;;;;;;;17.77;6.88;;;;;;;35.48;25.18;98220.84;4787219;29;20054;-64
2022/04/04 07:28:22;;;;;;;25.90;7.47;;;;;;;35.35;24.67;98212.09;4791624;29;20052;-65
2022/04/04 07:30:57;;;;;;;22.30;6.78;;;;;;;35.39;23.65;98214.09;4783746;29;20063;-64
2022/04/04 07:33:52;;;;;;;25.13;8.45;;;;;;;35.32;28.42;98207.97;4788508;29;20055;-65
2022/04/04 07:36:40;;;;;;;21.48;7.88;;;;;;;35.35;30.51;98196.84;4788726;29;20061;-63
2022/04/04 07:39:23;;;;;;;16.25;6.50;;;;;;;35.38;26.40;98200.91;4798756;29;20047;-65
2022/04/04 07:42:18;;;;;;;17.33;5.82;;;;;;;35.24;25.20;98201.00;4458012;29;10001137;-63
2022/04/04 07:44:53;;;;;;;20.30;6.07;;;;;;;35.16;28.59;98192.38;4787250;29;20051;-64
2022/04/04 07:47:42;;;;;;;24.25;5.90;;;;;;;34.95;26.91;98190.84;4788163;29;20075;-63
2022/04/04 07:50:24;;;;;;;14.63;5.20;;;;;;;34.95;28.04;98193.53;4788138;29;20140;-63
2022/04/04 07:53:13;;;;;;;14.95;5.60;;;;;;;34.77;28.06;98186.19;4788879;29;20092;-63
2022/04/04 07:56:02;;;;;;;15.65;6.18;;;;;;;34.77;25.07;98177.31;4787331;29;20051;-64
2022/04/04 07:58:44;;;;;;;22.60;6.10;;;;;;;34.83;27.98;98181.81;4783888;29;20059;-64
2022/04/04 08:01:33;;;;;;;22.52;5.32;;;;;;;34.95;24.85;98177.44;4788542;29;20062;-63
2022/04/04 08:04:22;;;;;;;29.05;6.50;;;;;;;35.03;25.32;98179.88;4782000;29;20735;-64
2022/04/04 08:07:12;;;;;;;20.77;6.45;;;;;;;35.23;23.33;98177.94;4789310;29;20059;-63
2022/04/04 08:09:53;;;;;;;21.55;5.25;;;;;;;35.14;23.59;98184.53;4786786;29;20062;-63
2022/04/04 08:12:42;;;;;;;12.73;5.00;;;;;;;35.28;24.50;98180.78;4774909;29;20088;-64
2022/04/04 08:15:24;;;;;;;17.05;5.57;;;;;;;35.29;25.21;98181.59;4790775;29;20388;-63
2022/04/04 08:18:13;;;;;;;15.18;5.47;;;;;;;35.08;23.82;98176.56;4788297;29;20066;-63
2022/04/04 08:20:57;;;;;;;13.32;5.53;;;;;;;35.27;23.25;98173.81;4786840;29;20112;-63
2022/04/04 08:23:46;;;;;;;17.10;5.50;;;;;;;35.22;22.52;98167.38;4789325;29;20051;-63
2022/04/04 08:26:27;;;;;;;22.70;6.20;;;;;;;35.25;24.02;98165.16;4801982;29;21477;-63
2022/04/04 08:29:16;;;;;;;17.92;5.90;;;;;;;35.16;25.46;98158.38;4788329;29;20130;-62
2022/04/04 08:31:58;;;;;;;17.17;6.15;;;;;;;35.19;23.02;98157.94;4787593;29;20476;-63
2022/04/04 08:34:48;;;;;;;19.83;6.35;;;;;;;35.31;23.41;98166.13;4790070;29;20061;-62
2022/04/04 08:37:31;;;;;;;17.15;5.40;;;;;;;35.26;25.04;98149.91;4787511;29;20061;-63
2022/04/04 08:40:22;;;;;;;13.55;5.07;;;;;;;35.06;22.92;98155.34;4788695;29;20059;-63
2022/04/04 08:43:11;;;;;;;12.38;4.75;;;;;;;35.10;23.51;98145.84;4779138;29;20055;-63
2022/04/04 08:46:01;;;;;;;22.20;6.57;;;;;;;35.10;22.04;98151.19;4788097;29;20143;-64
2022/04/04 08:48:43;;;;;;;21.75;4.72;;;;;;;35.10;22.24;98145.03;4787346;29;20057;-61
2022/04/04 08:51:36;;;;;;;19.52;5.72;;;;;;;35.12;21.95;98143.75;4786982;29;20079;-62
2022/04/04 08:54:18;;;;;;;21.30;4.88;;;;;;;35.14;21.96;98147.03;4790970;29;20838;-63
2022/04/04 08:57:05;;;;;;;21.40;5.28;;;;;;;35.05;23.36;98137.63;4790968;29;20092;-62
2022/04/04 08:59:48;;;;;;;21.85;5.28;;;;;;;35.15;24.12;98132.63;4785891;29;20063;-62
2022/04/04 09:02:38;;;;;;;17.30;4.57;;;;;;;35.15;22.19;98129.94;4787280;29;20124;-63
2022/04/04 09:05:19;;;;;;;18.20;4.82;;;;;;;35.15;22.85;98124.56;4788315;29;20047;-62
2022/04/04 09:08:14;;;;;;;20.08;5.25;;;;;;;35.08;21.78;98125.66;4788844;29;20135;-64
2022/04/04 09:11:00;;;;;;;19.15;4.90;;;;;;;35.09;23.47;98121.94;4788992;29;20155;-62
2022/04/04 09:13:52;;;;;;;23.45;5.18;;;;;;;35.08;21.65;98121.13;4787896;29;20101;-63
2022/04/04 09:16:56;;;;;;;15.52;4.47;;;;;;;35.01;22.51;98114.16;4790489;29;20061;-63
2022/04/04 09:19:37;;;;;;;22.38;5.28;;;;;;;34.98;23.54;98114.59;4786195;29;20055;-63
2022/04/04 09:22:26;;;;;;;21.33;4.65;;;;;;;35.01;21.96;98115.00;4784255;29;20066;-63
2022/04/04 09:25:16;;;;;;;24.42;5.43;;;;;;;34.99;21.29;98117.06;4780193;29;20094;-63
2022/04/04 09:28:15;;;;;;;23.70;5.18;;;;;;;34.99;21.92;98103.66;4780725;29;20162;-63
2022/04/04 09:31:15;;;;;;;20.17;4.90;;;;;;;34.93;23.01;98104.53;4791361;29;20054;-62
2022/04/04 09:34:11;;;;;;;20.63;5.68;;;;;;;34.87;23.57;98102.72;4794732;29;20112;-61
2022/04/04 09:36:47;;;;;;;19.30;4.88;;;;;;;34.98;21.77;98104.69;4790741;29;20400;-62
2022/04/04 09:39:36;;;;;;;16.30;5.43;;;;;;;34.97;23.35;98102.22;4788228;29;20051;-62
2022/04/04 09:42:39;;;;;;;17.90;5.30;;;;;;;34.91;22.43;98106.59;4783601;29;20130;-64
2022/04/04 09:45:36;;;;;;;10.55;4.60;;;;;;;34.89;22.85;98090.75;4781993;29;20055;-62
2022/04/04 09:48:12;;;;;;;17.40;5.55;;;;;;;34.81;23.67;98082.97;4783887;29;20362;-64
2022/04/04 09:51:07;;;;;;;23.00;5.30;;;;;;;34.69;23.25;98076.63;4783816;29;20362;-64
2022/04/04 09:53:42;;;;;;;18.98;5.15;;;;;;;34.68;23.44;98087.56;4784337;29;20471;-65
2022/04/04 09:56:30;;;;;;;20.23;5.40;;;;;;;34.68;22.29;98090.22;4785942;29;20050;-64
2022/04/04 09:59:14;;;;;;;9.95;4.65;;;;;;;34.63;24.11;98090.06;4787258;29;20549;-65
2022/04/04 10:02:05;;;;;;;16.95;4.55;;;;;;;34.65;21.28;98083.44;4789598;29;20046;-66
2022/04/04 10:04:48;;;;;;;13.82;4.43;;;;;;;34.56;23.00;98080.19;4790183;29;20116;-65
2022/04/04 10:07:38;;;;;;;16.45;5.53;;;;;;;34.47;23.29;98070.78;4800178;29;20050;-64
2022/04/04 10:10:20;;;;;;;21.60;4.78;;;;;;;34.48;24.00;98076.97;4781885;29;20052;-66
2022/04/04 10:13:09;;;;;;;16.35;5.57;;;;;;;34.41;24.44;98073.47;4782501;29;20047;-64
2022/04/04 10:15:53;;;;;;;17.40;5.38;;;;;;;34.38;22.75;98077.41;4792498;29;20069;-64
2022/04/04 10:18:44;;;;;;;24.42;6.50;;;;;;;34.32;24.36;98072.91;4789765;29;20054;-63
2022/04/04 10:21:26;;;;;;;20.90;4.60;;;;;;;34.29;24.36;98073.31;4807336;29;20059;-64
2022/04/04 10:24:17;;;;;;;25.83;5.43;;;;;;;34.26;23.85;98084.44;4791831;29;20066;-64
2022/04/04 10:27:12;;;;;;;23.33;5.65;;;;;;;34.24;24.09;98065.13;4794802;29;20051;-64
2022/04/04 10:30:12;;;;;;;23.30;5.20;;;;;;;34.28;23.38;98068.19;4772768;29;20054;-64
2022/04/04 10:33:02;;;;;;;21.75;5.30;;;;;;;34.34;21.60;98075.34;4782313;29;20051;-65
2022/04/04 10:36:07;;;;;;;17.80;5.93;;;;;;;34.28;22.87;98068.19;4785991;29;20070;-65
2022/04/04 10:39:01;;;;;;;16.33;5.07;;;;;;;34.28;22.40;98063.66;4783607;29;20376;-65
2022/04/04 10:41:48;;;;;;;15.13;4.93;;;;;;;34.36;22.99;98066.09;4794259;29;20059;-66
2022/04/04 10:44:53;;;;;;;22.75;5.07;;;;;;;34.29;21.66;98067.97;4789974;29;20123;-66
2022/04/04 10:47:46;;;;;;;17.55;5.47;;;;;;;34.32;22.88;98072.91;4790365;29;20055;-66
2022/04/04 10:50:36;;;;;;;23.63;6.25;;;;;;;34.38;22.17;98064.03;4781193;29;20055;-66
2022/04/04 10:53:43;;;;;;;25.05;5.60;;;;;;;34.33;21.70;98065.69;4787936;29;20374;-65
2022/04/04 10:56:40;;;;;;;17.77;5.20;;;;;;;34.26;23.82;98054.19;4787034;29;20451;-67
2022/04/04 10:59:28;;;;;;;23.45;5.63;;;;;;;34.30;23.68;98058.94;4786986;29;20348;-68
2022/04/04 11:02:11;;;;;;;13.02;4.75;;;;;;;34.21;22.10;98054.81;4764993;29;20059;-68
2022/04/04 11:08:06;;;;;;;24.55;5.18;;;;;;;34.12;23.62;98067.59;4789014;29;20055;-66
2022/04/04 11:11:04;;;;;;;16.40;4.80;;;;;;;34.01;22.12;98067.41;4789954;29;20430;-66
2022/04/04 11:13:50;;;;;;;15.35;4.57;;;;;;;34.02;23.28;98061.03;4784098;29;20640;-64
2022/04/04 11:17:09;;;;;;;27.88;5.45;;;;;;;33.97;22.62;98060.84;4790543;29;20116;-66
2022/04/04 11:20:16;;;;;;;13.25;4.30;;;;;;;33.87;23.51;98068.47;4790499;29;20057;-66
2022/04/04 11:23:01;;;;;;;14.63;5.22;;;;;;;33.83;23.76;98059.25;4786943;29;20051;-66
2022/04/04 11:25:56;;;;;;;19.23;5.55;;;;;;;33.76;22.85;98062.75;4789510;29;20062;-65
2022/04/04 11:28:38;;;;;;;19.73;4.80;;;;;;;33.76;23.46;98061.94;4789961;29;20120;-65
2022/04/04 11:31:28;;;;;;;15.75;4.65;;;;;;;33.68;23.16;98062.13;4771745;29;20055;-64
2022/04/04 11:34:17;;;;;;;12.73;4.85;;;;;;;33.55;24.30;98064.81;4786865;29;20058;-65
2022/04/04 11:36:59;;;;;;;17.67;5.05;;;;;;;33.50;24.08;98062.75;4791955;29;20073;-65
2022/04/04 11:40:03;;;;;;;18.13;4.57;;;;;;;33.45;24.80;98065.22;4790930;29;20063;-65
2022/04/04 11:42:44;;;;;;;13.52;4.72;;;;;;;33.38;23.59;98069.75;4784670;29;20066;-65
2022/04/04 11:45:39;;;;;;;19.65;4.55;;;;;;;33.25;24.92;98070.59;4786023;29;20051;-67
2022/04/04 11:48:30;;;;;;;19.38;6.00;;;;;;;33.17;24.99;98062.75;4786031;29;21052;-65
2022/04/04 11:51:12;;;;;;;14.10;6.55;;;;;;;33.04;23.10;98074.25;4788679;29;20062;-64
2022/04/04 11:54:13;;;;;;;18.40;6.25;;;;;;;32.98;24.81;98080.38;4787012;29;20055;-63
2022/04/04 11:56:58;;;;;;;17.27;4.93;;;;;;;32.88;25.10;98073.81;4786688;29;20498;-65
2022/04/04 11:59:51;;;;;;;19.92;5.35;;;;;;;32.76;25.51;98070.88;4790822;29;20475;-67
2022/04/04 12:02:33;;;;;;;20.65;5.78;;;;;;;32.63;25.84;98076.19;4788791;29;20055;-66
2022/04/04 12:05:24;;;;;;;22.50;6.60;;;;;;;32.46;29.81;98074.88;4791817;29;20075;-66
2022/04/04 12:08:10;;;;;;;23.80;7.18;;;;;;;32.34;29.90;98071.13;4789877;29;20054;-66
2022/04/04 12:10:58;;;;;;;18.60;5.28;;;;;;;32.14;30.76;98071.84;4790779;29;20074;-67
2022/04/04 12:13:53;;;;;;;19.83;5.47;;;;;;;32.07;29.87;98072.84;4790460;29;20079;-66
2022/04/04 12:16:56;;;;;;;14.07;5.13;;;;;;;32.12;27.15;98076.53;4791220;29;20143;-67
2022/04/04 12:19:42;;;;;;;16.58;5.57;;;;;;;31.82;32.90;98080.47;4788281;29;20108;-67
2022/04/04 12:25:39;;;;;;;23.77;6.13;;;;;;;31.31;31.00;98079.84;4787452;29;20047;-65
2022/04/04 12:28:34;;;;;;;19.98;5.95;;;;;;;31.12;33.22;98086.69;4775752;29;20384;-64
2022/04/04 12:31:22;;;;;;;23.50;6.07;;;;;;;31.09;28.52;98087.88;4796422;29;20055;-66
2022/04/04 12:34:18;;;;;;;25.95;6.18;;;;;;;31.06;29.66;98082.06;4786605;29;20047;-65
2022/04/04 12:37:08;;;;;;;27.58;6.82;;;;;;;30.97;33.76;98077.91;4781883;29;20066;-66
2022/04/04 12:39:55;;;;;;;27.65;6.90;;;;;;;30.85;31.08;98088.22;4784240;29;20644;-65
2022/04/04 12:42:48;;;;;;;17.10;7.25;;;;;;;30.68;34.24;98079.63;4779116;29;20055;-66
2022/04/04 12:45:30;;;;;;;28.40;8.32;;;;;;;30.56;34.74;98086.47;4796032;29;20066;-67
2022/04/04 12:48:25;;;;;;;32.03;9.82;;;;;;;30.54;34.22;98088.50;4781890;29;20051;-66
2022/04/04 12:51:01;;;;;;;27.23;10.07;;;;;;;30.42;34.29;98087.28;4781558;29;20101;-67
2022/04/04 12:54:00;;;;;;;32.45;11.02;;;;;;;30.34;30.17;98093.53;4788687;29;20123;-66
2022/04/04 12:56:49;;;;;;;26.48;12.23;;;;;;;30.34;30.10;98100.66;4789024;29;20070;-67
2022/04/04 12:59:59;;;;;;;27.73;10.82;;;;;;;30.20;34.75;98102.34;4775646;29;20062;-65
2022/04/04 13:02:36;;;;;;;31.00;8.65;;;;;;;30.08;34.05;98098.50;4775576;29;20581;-67
2022/04/04 13:05:33;;;;;;;26.15;8.75;;;;;;;29.98;33.30;98103.28;4780961;29;20066;-67